createdAt,value
2019-03-30T00:01:58.652Z,95.80
2019-03-30T00:04:29.995Z,95.90
2019-03-30T00:07:01.166Z,96.00
2019-03-30T00:09:32.427Z,96.30
2019-03-30T00:12:03.790Z,96.60
2019-03-30T00:14:35.163Z,97.30
2019-03-30T00:17:06.432Z,96.70
2019-03-30T00:19:37.633Z,96.90
2019-03-30T00:22:08.958Z,97.00
2019-03-30T00:24:40.127Z,97.10
2019-03-30T00:27:11.542Z,96.90
2019-03-30T00:29:42.931Z,96.60
2019-03-30T00:32:14.151Z,97.30
2019-03-30T00:34:45.654Z,96.30
2019-03-30T00:37:16.900Z,95.50
2019-03-30T00:39:48.383Z,95.60
2019-03-30T00:42:19.643Z,95.30
2019-03-30T00:44:50.974Z,95.20
2019-03-30T00:47:22.289Z,95.40
2019-03-30T00:49:53.728Z,95.60
2019-03-30T00:52:24.835Z,96.00
2019-03-30T00:54:55.987Z,95.70
2019-03-30T00:57:27.408Z,95.60
2019-03-30T00:59:58.828Z,95.70
2019-03-30T01:02:30.086Z,95.60
2019-03-30T01:05:01.482Z,95.30
2019-03-30T01:07:32.988Z,95.60
2019-03-30T01:10:04.421Z,96.10
2019-03-30T01:12:35.536Z,95.40
2019-03-30T01:15:08.616Z,95.70
2019-03-30T01:17:39.902Z,95.90
2019-03-30T01:20:11.242Z,95.80
2019-03-30T01:22:42.489Z,96.00
2019-03-30T01:25:13.799Z,96.00
2019-03-30T01:27:44.979Z,95.70
2019-03-30T01:30:23.365Z,96.30
2019-03-30T01:32:51.256Z,97.00
2019-03-30T01:35:22.698Z,96.70
2019-03-30T01:37:53.955Z,96.60
2019-03-30T01:40:25.243Z,96.10
2019-03-30T01:42:56.581Z,96.20
2019-03-30T01:45:28.044Z,96.10
2019-03-30T01:47:59.384Z,95.80
2019-03-30T01:50:30.776Z,95.50
2019-03-30T01:53:02.057Z,95.20
2019-03-30T01:55:33.376Z,95.50
2019-03-30T01:58:04.535Z,95.60
2019-03-30T02:00:35.975Z,95.70
2019-03-30T02:03:07.431Z,95.70
2019-03-30T02:05:38.740Z,95.70
2019-03-30T02:08:09.927Z,95.50
2019-03-30T02:10:44.896Z,95.20
2019-03-30T02:13:16.405Z,95.50
2019-03-30T02:15:47.631Z,95.80
2019-03-30T02:18:19.104Z,95.70
2019-03-30T02:20:50.346Z,95.60
2019-03-30T02:23:21.563Z,95.30
2019-03-30T02:25:52.903Z,95.20
2019-03-30T02:28:24.129Z,95.30
2019-03-30T02:30:55.589Z,95.30
2019-03-30T02:33:26.902Z,95.50
2019-03-30T02:35:58.238Z,95.40
2019-03-30T02:38:29.275Z,95.70
2019-03-30T02:41:26.896Z,95.70
2019-03-30T02:43:58.225Z,95.40
2019-03-30T02:46:29.598Z,95.50
2019-03-30T02:49:00.916Z,96.00
2019-03-30T02:51:32.290Z,95.90
2019-03-30T02:54:03.501Z,96.20
2019-03-30T02:56:34.673Z,96.10
2019-03-30T02:59:05.986Z,96.10
2019-03-30T03:01:38.378Z,96.00
2019-03-30T03:04:09.694Z,96.40
2019-03-30T03:06:40.917Z,96.70
2019-03-30T03:09:12.080Z,96.60
2019-03-30T03:11:43.392Z,97.20
2019-03-30T03:14:14.583Z,97.20
2019-03-30T03:16:45.774Z,97.30
2019-03-30T03:19:16.895Z,97.00
2019-03-30T03:21:48.266Z,97.20
2019-03-30T03:24:20.686Z,97.10
2019-03-30T03:26:51.991Z,97.10
2019-03-30T03:29:23.158Z,97.30
2019-03-30T03:31:54.590Z,97.10
2019-03-30T03:34:25.998Z,96.50
2019-03-30T03:36:57.397Z,96.60
2019-03-30T03:39:28.671Z,96.40
2019-03-30T03:42:00.053Z,96.20
2019-03-30T03:44:31.245Z,96.10
2019-03-30T03:47:02.676Z,95.90
2019-03-30T03:49:33.933Z,95.90
2019-03-30T03:52:05.246Z,95.90
2019-03-30T03:54:36.539Z,96.00
2019-03-30T03:57:08.037Z,95.70
2019-03-30T03:59:39.360Z,95.90
2019-03-30T04:02:10.890Z,96.00
2019-03-30T04:04:42.028Z,96.20
2019-03-30T04:07:50.945Z,96.20
2019-03-30T04:10:22.317Z,96.50
2019-03-30T04:12:53.507Z,96.40
2019-03-30T04:15:28.184Z,96.50
2019-03-30T04:17:59.462Z,96.10
2019-03-30T04:20:30.662Z,96.20
2019-03-30T04:23:02.074Z,96.20
2019-03-30T04:25:33.287Z,96.10
2019-03-30T04:28:04.702Z,96.00
2019-03-30T04:30:35.946Z,96.20
2019-03-30T04:33:07.394Z,96.00
2019-03-30T04:35:38.644Z,96.70
2019-03-30T04:38:13.941Z,96.90
2019-03-30T04:40:42.792Z,96.70
2019-03-30T04:43:13.966Z,96.60
2019-03-30T04:45:45.382Z,97.30
2019-03-30T04:48:16.696Z,96.70
2019-03-30T04:50:47.967Z,96.40
2019-03-30T04:53:19.254Z,97.00
2019-03-30T04:55:51.386Z,97.20
2019-03-30T04:58:22.762Z,97.30
2019-03-30T05:00:54.133Z,97.20
2019-03-30T05:03:25.462Z,96.90
2019-03-30T05:05:56.779Z,96.60
2019-03-30T05:08:27.969Z,96.60
2019-03-30T05:10:59.243Z,96.40
2019-03-30T05:13:30.589Z,96.50
2019-03-30T05:16:01.861Z,96.60
2019-03-30T05:18:33.069Z,96.90
2019-03-30T05:21:04.289Z,96.80
2019-03-30T05:23:35.624Z,96.80
2019-03-30T05:26:06.947Z,96.60
2019-03-30T05:28:38.259Z,96.40
2019-03-30T05:31:09.571Z,96.30
2019-03-30T05:33:40.815Z,96.70
2019-03-30T05:36:12.001Z,97.10
2019-03-30T05:38:43.333Z,97.20
2019-03-30T05:41:14.539Z,97.40
2019-03-30T05:43:45.914Z,97.50
2019-03-30T05:46:17.201Z,97.60
2019-03-30T05:48:48.622Z,97.40
2019-03-30T05:51:19.927Z,97.50
2019-03-30T05:53:51.184Z,97.70
2019-03-30T05:56:22.496Z,98.00
2019-03-30T05:58:53.803Z,98.90
2019-03-30T06:01:25.127Z,98.80
2019-03-30T06:03:56.490Z,98.60
2019-03-30T06:06:27.721Z,98.40
2019-03-30T06:08:59.011Z,98.50
2019-03-30T06:11:30.260Z,98.30
2019-03-30T06:14:01.595Z,98.20
2019-03-30T06:16:32.763Z,98.00
2019-03-30T06:19:04.175Z,97.50
2019-03-30T06:21:35.654Z,97.60
2019-03-30T06:24:07.073Z,97.40
2019-03-30T06:26:38.479Z,97.50
2019-03-30T06:29:09.782Z,97.50
2019-03-30T06:31:40.986Z,97.90
2019-03-30T06:34:12.335Z,98.00
2019-03-30T06:36:43.627Z,97.70
2019-03-30T06:39:14.976Z,97.60
2019-03-30T06:41:46.126Z,97.10
2019-03-30T06:44:18.487Z,97.20
2019-03-30T06:46:49.866Z,97.00
2019-03-30T06:49:21.163Z,96.50
2019-03-30T06:51:52.455Z,96.40
2019-03-30T06:54:23.761Z,96.00
2019-03-30T06:56:54.996Z,95.80
2019-03-30T06:59:26.339Z,95.60
2019-03-30T07:01:57.623Z,95.20
2019-03-30T07:04:28.934Z,95.00
2019-03-30T07:07:00.317Z,95.10
2019-03-30T07:09:31.783Z,94.60
2019-03-30T07:12:03.053Z,93.60
2019-03-30T07:14:34.761Z,93.30
2019-03-30T07:17:06.024Z,92.90
2019-03-30T07:19:37.495Z,92.50
2019-03-30T07:22:08.717Z,91.80
2019-03-30T07:24:39.946Z,91.50
2019-03-30T07:27:11.246Z,90.80
2019-03-30T07:29:42.506Z,90.60
2019-03-30T07:32:13.804Z,90.70
2019-03-30T07:34:45.203Z,90.30
2019-03-30T07:37:16.514Z,88.50
2019-03-30T07:39:47.932Z,87.70
2019-03-30T07:42:19.192Z,87.70
2019-03-30T07:44:50.528Z,87.60
2019-03-30T07:47:22.920Z,85.80
2019-03-30T07:49:54.185Z,82.80
2019-03-30T07:52:25.607Z,83.90
2019-03-30T07:54:58.014Z,81.40
2019-03-30T07:57:30.375Z,82.10
2019-03-30T08:00:01.840Z,81.10
2019-03-30T08:02:34.072Z,79.40
2019-03-30T08:05:05.496Z,78.80
2019-03-30T08:07:36.879Z,79.60
2019-03-30T08:10:08.160Z,78.70
2019-03-30T08:12:39.368Z,78.30
2019-03-30T08:15:10.811Z,75.10
2019-03-30T08:17:43.062Z,74.20
2019-03-30T08:20:14.402Z,72.70
2019-03-30T08:22:45.877Z,73.40
2019-03-30T08:25:17.264Z,73.80
2019-03-30T08:27:48.595Z,71.70
2019-03-30T08:30:19.948Z,70.50
2019-03-30T08:32:51.390Z,69.90
2019-03-30T08:35:22.692Z,69.40
2019-03-30T08:37:53.956Z,69.50
2019-03-30T08:40:25.261Z,70.60
2019-03-30T08:42:56.503Z,68.80
2019-03-30T08:45:27.856Z,68.20
2019-03-30T08:47:59.243Z,68.30
2019-03-30T08:50:30.653Z,68.20
2019-03-30T08:53:01.988Z,66.50
2019-03-30T08:55:33.335Z,60.60
2019-03-30T08:58:04.657Z,65.70
2019-03-30T09:04:12.529Z,65.00
2019-03-30T09:06:43.763Z,61.40
2019-03-30T09:09:15.054Z,62.60
2019-03-30T09:11:46.462Z,64.00
2019-03-30T09:14:17.669Z,64.70
2019-03-30T09:16:48.934Z,62.40
2019-03-30T09:19:20.253Z,65.30
2019-03-30T09:21:51.642Z,62.60
2019-03-30T09:24:23.038Z,60.10
2019-03-30T09:26:54.324Z,61.30
2019-03-30T09:29:25.631Z,58.50
2019-03-30T09:31:56.926Z,59.60
2019-03-30T09:34:28.220Z,58.60
2019-03-30T09:36:59.436Z,56.80
2019-03-30T09:39:30.629Z,57.00
2019-03-30T09:42:01.928Z,56.60
2019-03-30T09:44:33.329Z,57.90
2019-03-30T09:47:04.638Z,54.90
2019-03-30T09:49:36.110Z,55.50
2019-03-30T09:52:07.381Z,54.80
2019-03-30T09:54:38.904Z,53.60
2019-03-30T09:57:10.216Z,52.40
2019-03-30T09:59:41.423Z,52.50
2019-03-30T10:02:12.815Z,53.20
2019-03-30T10:04:44.300Z,53.20
2019-03-30T10:07:15.603Z,51.30
2019-03-30T10:09:47.392Z,53.20
2019-03-30T10:12:19.039Z,49.00
2019-03-30T10:14:50.348Z,50.10
2019-03-30T10:17:21.733Z,51.40
2019-03-30T10:20:03.698Z,48.30
2019-03-30T10:22:25.998Z,46.80
2019-03-30T10:24:58.496Z,50.40
2019-03-30T10:27:30.069Z,49.20
2019-03-30T10:30:01.354Z,49.40
2019-03-30T10:32:32.751Z,49.80
2019-03-30T10:35:04.003Z,48.80
2019-03-30T10:37:35.254Z,46.20
2019-03-30T10:40:07.150Z,51.40
2019-03-30T10:42:39.366Z,50.10
2019-03-30T10:45:10.613Z,47.30
2019-03-30T10:47:42.081Z,49.40
2019-03-30T10:50:13.687Z,46.80
2019-03-30T10:52:44.962Z,47.40
2019-03-30T10:55:22.116Z,45.10
2019-03-30T10:57:53.417Z,47.70
2019-03-30T11:00:39.143Z,47.20
2019-03-30T11:03:10.554Z,46.10
2019-03-30T11:05:41.761Z,45.00
2019-03-30T11:08:13.024Z,44.30
2019-03-30T11:10:44.328Z,43.40
2019-03-30T11:13:15.624Z,46.50
2019-03-30T11:15:46.929Z,46.40
2019-03-30T11:18:18.224Z,44.90
2019-03-30T11:20:49.437Z,46.60
2019-03-30T11:23:20.589Z,46.10
2019-03-30T11:25:51.844Z,45.30
2019-03-30T11:28:23.217Z,44.30
2019-03-30T11:30:55.570Z,44.80
2019-03-30T11:33:26.962Z,44.10
2019-03-30T11:35:58.316Z,45.10
2019-03-30T11:38:29.697Z,41.20
2019-03-30T11:41:01.019Z,38.40
2019-03-30T11:43:32.415Z,40.10
2019-03-30T11:46:03.689Z,43.70
2019-03-30T11:48:37.447Z,41.60
2019-03-30T11:51:08.019Z,41.30
2019-03-30T11:53:39.332Z,41.90
2019-03-30T11:56:10.625Z,45.00
2019-03-30T11:58:42.026Z,45.40
2019-03-30T12:01:13.320Z,43.90
2019-03-30T12:03:44.725Z,44.80
2019-03-30T12:06:16.056Z,43.20
2019-03-30T12:08:47.540Z,42.10
2019-03-30T12:11:18.649Z,44.80
2019-03-30T12:13:50.290Z,44.00
2019-03-30T12:16:21.518Z,42.80
2019-03-30T12:18:52.820Z,42.80
2019-03-30T12:21:24.123Z,43.20
2019-03-30T12:23:55.304Z,43.30
2019-03-30T12:26:26.505Z,39.10
2019-03-30T12:28:57.890Z,43.80
2019-03-30T12:31:29.095Z,44.90
2019-03-30T12:34:00.496Z,40.20
2019-03-30T12:36:33.022Z,41.90
2019-03-30T12:39:04.653Z,43.60
2019-03-30T12:41:36.029Z,44.70
2019-03-30T12:44:07.523Z,41.80
2019-03-30T12:46:38.852Z,43.30
2019-03-30T12:49:10.508Z,42.50
2019-03-30T12:51:41.936Z,43.60
2019-03-30T12:54:14.240Z,43.90
2019-03-30T12:56:45.521Z,44.50
2019-03-30T12:59:16.667Z,39.90
2019-03-30T13:01:47.960Z,44.10
2019-03-30T13:04:19.336Z,43.60
2019-03-30T13:06:50.607Z,46.50
2019-03-30T13:09:21.939Z,43.00
2019-03-30T13:11:53.224Z,45.60
2019-03-30T13:14:24.522Z,49.60
2019-03-30T13:16:55.806Z,49.10
2019-03-30T13:19:27.242Z,45.40
2019-03-30T13:21:59.616Z,49.30
2019-03-30T13:24:30.926Z,47.70
2019-03-30T13:27:02.025Z,46.30
2019-03-30T13:29:33.053Z,48.10
2019-03-30T13:32:04.223Z,48.60
2019-03-30T13:34:35.664Z,45.30
2019-03-30T13:37:16.504Z,47.90
2019-03-30T13:39:47.740Z,47.90
2019-03-30T13:42:18.946Z,46.10
2019-03-30T13:44:50.214Z,45.60
2019-03-30T13:47:21.617Z,47.30
2019-03-30T13:49:53.930Z,49.40
2019-03-30T13:52:25.341Z,47.80
2019-03-30T13:54:56.778Z,46.10
2019-03-30T13:57:27.939Z,47.90
2019-03-30T13:59:59.357Z,49.10
2019-03-30T14:02:30.737Z,49.20
2019-03-30T14:05:02.039Z,44.80
2019-03-30T14:07:33.316Z,47.50
2019-03-30T14:10:04.852Z,48.00
2019-03-30T14:12:37.140Z,46.20
2019-03-30T14:15:09.492Z,46.50
2019-03-30T14:17:40.980Z,44.60
2019-03-30T14:20:12.154Z,47.80
2019-03-30T14:22:43.546Z,46.20
2019-03-30T14:25:14.755Z,48.20
2019-03-30T14:27:46.252Z,46.70
2019-03-30T14:30:17.676Z,46.60
2019-03-30T14:32:48.864Z,47.90
2019-03-30T14:35:20.073Z,44.10
2019-03-30T14:37:51.322Z,46.90
2019-03-30T14:40:22.481Z,45.30
2019-03-30T14:42:53.762Z,44.50
2019-03-30T14:45:25.082Z,44.10
2019-03-30T14:47:58.109Z,43.40
2019-03-30T14:50:29.508Z,43.90
2019-03-30T14:53:00.896Z,44.00
2019-03-30T14:55:32.092Z,45.20
2019-03-30T14:58:03.437Z,43.90
2019-03-30T15:00:34.731Z,43.50
2019-03-30T15:03:06.197Z,45.10
2019-03-30T15:05:37.484Z,45.80
2019-03-30T15:08:08.823Z,44.30
2019-03-30T15:10:40.018Z,43.60
2019-03-30T15:13:11.592Z,46.50
2019-03-30T15:15:43.814Z,44.60
2019-03-30T15:18:15.004Z,46.50
2019-03-30T15:20:46.237Z,46.10
2019-03-30T15:23:17.617Z,46.00
2019-03-30T15:25:48.768Z,47.10
2019-03-30T15:28:20.000Z,44.30
2019-03-30T15:30:51.166Z,46.80
2019-03-30T15:33:22.454Z,46.60
2019-03-30T15:35:53.805Z,47.20
2019-03-30T15:38:25.177Z,47.00
2019-03-30T15:40:56.498Z,46.50
2019-03-30T15:43:38.259Z,47.10
2019-03-30T15:46:00.726Z,46.10
2019-03-30T15:48:31.870Z,47.20
2019-03-30T15:51:03.011Z,48.00
2019-03-30T15:53:34.467Z,47.40
2019-03-30T15:56:05.784Z,48.00
2019-03-30T15:58:38.084Z,49.40
2019-03-30T16:01:09.301Z,51.30
2019-03-30T16:03:40.695Z,50.80
2019-03-30T16:06:13.543Z,52.20
2019-03-30T16:08:44.926Z,49.60
2019-03-30T16:11:16.339Z,52.20
2019-03-30T16:13:47.826Z,53.60
2019-03-30T16:16:19.129Z,53.80
2019-03-30T16:18:50.554Z,53.90
2019-03-30T16:21:21.711Z,53.60
2019-03-30T16:23:53.124Z,55.70
2019-03-30T16:26:24.308Z,55.70
2019-03-30T16:28:55.643Z,55.50
2019-03-30T16:31:26.803Z,55.90
2019-03-30T16:33:58.106Z,55.30
2019-03-30T16:36:29.402Z,54.20
2019-03-30T16:39:00.723Z,56.30
2019-03-30T16:41:32.992Z,55.70
2019-03-30T16:44:04.406Z,56.40
2019-03-30T16:46:35.556Z,57.30
2019-03-30T16:49:06.809Z,56.90
2019-03-30T16:51:39.053Z,57.90
2019-03-30T16:54:10.456Z,57.30
2019-03-30T16:56:41.840Z,58.40
2019-03-30T16:59:13.990Z,58.00
2019-03-30T17:01:45.272Z,59.50
2019-03-30T17:04:16.725Z,61.30
2019-03-30T17:06:47.954Z,63.40
2019-03-30T17:09:19.317Z,62.90
2019-03-30T17:11:50.712Z,62.40
2019-03-30T17:14:22.116Z,62.60
2019-03-30T17:16:53.446Z,61.90
2019-03-30T17:19:24.848Z,63.10
2019-03-30T17:21:56.018Z,63.20
2019-03-30T17:24:27.303Z,62.30
2019-03-30T17:26:58.728Z,63.80
2019-03-30T17:29:30.138Z,64.50
2019-03-30T17:32:01.665Z,64.40
2019-03-30T17:34:33.314Z,63.80
2019-03-30T17:37:04.508Z,65.10
2019-03-30T17:39:35.600Z,66.00
2019-03-30T17:42:06.933Z,65.30
2019-03-30T17:44:38.184Z,65.50
2019-03-30T17:47:09.510Z,67.00
2019-03-30T17:49:40.891Z,66.70
2019-03-30T17:52:12.112Z,67.10
2019-03-30T17:54:43.498Z,67.50
2019-03-30T17:57:17.521Z,68.20
2019-03-30T17:59:47.830Z,69.00
2019-03-30T18:02:19.307Z,68.60
2019-03-30T18:04:52.269Z,69.70
2019-03-30T18:07:23.550Z,69.60
2019-03-30T18:09:54.789Z,71.30
2019-03-30T18:12:46.398Z,72.00
2019-03-30T18:54:00.391Z,79.10
2019-03-30T19:07:56.852Z,80.00
2019-03-30T19:10:47.089Z,80.10
2019-03-30T19:13:18.390Z,80.10
2019-03-30T19:15:49.736Z,80.50
2019-03-30T19:18:20.958Z,80.50
2019-03-30T19:20:52.329Z,80.40
2019-03-30T19:23:23.681Z,80.80
2019-03-30T19:25:55.044Z,80.50
2019-03-30T19:28:26.320Z,81.10
2019-03-30T19:30:57.754Z,82.10
2019-03-30T19:33:29.139Z,86.20
2019-03-30T19:36:00.478Z,84.40
2019-03-30T19:38:31.844Z,87.40
2019-03-30T19:41:03.217Z,88.60
2019-03-30T19:43:34.507Z,90.20
2019-03-30T19:46:05.960Z,90.60
2019-03-30T20:29:24.422Z,91.10
2019-03-30T21:15:42.476Z,85.10
2019-03-30T21:18:13.738Z,85.80
2019-03-30T21:20:45.106Z,86.10
2019-03-30T21:23:16.430Z,86.80
2019-03-30T21:25:47.702Z,87.00
2019-03-30T21:28:18.892Z,87.20
2019-03-30T21:30:50.174Z,86.60
2019-03-30T21:33:21.515Z,87.60
2019-03-30T21:35:52.835Z,87.80
2019-03-30T21:38:24.587Z,88.80
2019-03-30T21:40:55.981Z,89.30
2019-03-30T21:43:27.164Z,89.70
2019-03-30T21:45:58.487Z,89.10
2019-03-30T21:48:29.867Z,87.90
2019-03-30T21:51:01.160Z,88.30
2019-03-30T21:53:32.557Z,88.00
2019-03-30T21:56:03.896Z,88.10
2019-03-30T21:58:35.365Z,87.80
2019-03-30T22:01:06.701Z,87.70
2019-03-30T22:03:38.173Z,86.70
2019-03-30T22:06:09.471Z,86.90
2019-03-30T22:08:40.980Z,86.50
2019-03-30T22:11:12.279Z,84.90
2019-03-30T22:13:43.681Z,86.20
2019-03-30T22:16:14.799Z,85.80
2019-03-30T22:18:46.078Z,85.50
2019-03-30T22:21:17.377Z,85.80
2019-03-30T22:23:48.573Z,85.70
2019-03-30T22:26:20.182Z,86.90
2019-03-30T22:28:51.531Z,86.90
2019-03-30T22:31:22.846Z,87.10
2019-03-30T22:33:54.131Z,86.80
2019-03-30T22:36:25.444Z,86.90
2019-03-30T22:38:56.663Z,87.60
2019-03-30T22:41:27.834Z,86.80
2019-03-30T22:43:59.222Z,86.20
2019-03-30T22:46:30.546Z,86.90
2019-03-30T22:49:01.961Z,88.30
2019-03-30T22:51:33.357Z,90.30
2019-03-30T22:54:04.703Z,90.20
2019-03-30T22:56:35.914Z,90.20
2019-03-30T22:59:07.314Z,89.20
2019-03-30T23:01:38.706Z,89.80
2019-03-30T23:04:09.903Z,88.80
2019-03-30T23:06:41.206Z,89.80
2019-03-30T23:09:12.484Z,88.70
2019-03-30T23:11:43.900Z,89.10
2019-03-30T23:14:15.215Z,89.20
2019-03-30T23:16:46.692Z,88.70
2019-03-30T23:19:18.090Z,88.50
2019-03-30T23:21:49.484Z,88.70
2019-03-30T23:24:20.679Z,88.60
2019-03-30T23:26:51.991Z,88.90
2019-03-30T23:29:23.366Z,89.10
2019-03-30T23:31:54.731Z,88.50
2019-03-30T23:34:26.098Z,88.80
2019-03-30T23:36:57.574Z,89.10
2019-03-30T23:39:28.902Z,88.70
2019-03-30T23:42:00.097Z,88.90
2019-03-30T23:44:31.497Z,89.30
2019-03-30T23:47:02.799Z,89.40
2019-03-30T23:49:34.188Z,89.30
2019-03-30T23:52:05.487Z,89.40
2019-03-30T23:54:36.979Z,90.60
2019-03-30T23:57:08.284Z,92.20
2019-03-30T23:59:39.695Z,92.30
